National Weather Service Raw Text Product

Displaying AFOS PIL: TAFALO Received: 2017-12-07 05:29 UTC


048 
FTUS43 KDMX 070529
TAFALO
TAF
KALO 070529Z 0706/0806 31014G20KT 5SM -SN OVC035
     FM070800 31013G21KT P6SM BKN035
     FM071300 30012G18KT P6SM SCT250
     FM072300 27009KT P6SM SCT200=